Finlayson, MN

11:44 PM CDT on July 22, 2014 (GMT -0500)
RiverLand (KMNFINLA2) Elev 1115 ft | 46.29 °N, 92.96 °W | Change Station

Current weather conditions updated 6 minutes ago

Overcast
Overcast
61.7 °F
Feels Like 61.7 °F
N
0.0
Wind Variable Wind from SSE
Gusts 0.9 mph

Tomorrow is forecast to be Cooler than today.

Today
High -- | Low -- °F
--% Chance of Precip.
Yesterday
High -- | Low -- °F
Precip. -- in
5:42 AM 8:53 PM
Waning Crescent, 13% visible
Pressure 30.17 in
Visibility 10.0 miles
Clouds Clear
Dew Point 56 °F
Humidity 82%
Rainfall 0.37 in
Snow Depth Not available.
UV 0 out of 12
Pollen .60 out of 12
Air Quality Not available.
Flu Activity Not available.
METAR K04W 230438Z AUTO 33005KT 10SM CLR 17/14 A3017 RMK AO2

More Conditions Fewer Conditions

Pressure 30.17 in
Visibility 10.0 miles
Clouds Clear
Dew Point 56 °F
Humidity 82%
Rainfall 0.37 in
Snow Depth Not available.
UV 0 out of 12
Pollen .60 out of 12
Air Quality Not available.
Flu Activity Not available.
METAR K04W 230438Z AUTO 33005KT 10SM CLR 17/14 A3017 RMK AO2

More Conditions Fewer Conditions

10-Day Weather Forecast

Almanac

Astronomy

Jul. 22, 2014 Rise Set
Actual Time 5:42 AM CDT 8:53 PM CDT
Civil Twilight 5:05 AM CDT 9:29 PM CDT
Nautical Twilight 4:18 AM CDT 10:16 PM CDT
Astronomical Twilight 3:20 AM CDT 11:14 PM CDT
Moon 2:18 AM CDT (7/22) 5:30 PM CDT (7/22)
Length of Visible Light 16h 23m
Length of Day
15h 11m
Tomorrow will be 2m 7s shorter.
Waning Crescent, 13% of the Moon is Illuminated
Jul 23
Waning Crescent
Jul 26
New
Aug 3
First Quarter
Aug 10
Full
Aug 17
Last Quarter

Yesterday's Extremes

State Highs State Lows

Community

WunderPhotos

Upload Photos

1,736,508 photos uploaded!

Nearby

Snow Depth

Station Depth Elevation
No new snow has been reported.

Earthquake Activity

City Distance Mag. Time & Date
No recent earthquake activity has been reported nearby.
Minimum magnitude displayed is 2.5.

Coastal Water Temperatures

Place Temperature
No Stations Reporting

Nearby Weather Stations

Station Location Temp. Dew Point Humidity Wind Precip. Elev Updated Type
RiverLand, Finlayson, MN 61.7 °F 56 °F 82% SSE  at  0.0 mph 0.00 in / hr 1115 ft 11:37 PM CDT Rapid Fire
RAWS MOOSE LAKE MN, Moose Lake, MN 62 °F 57 °F 84% NNW  at  1 mph 0.00 in / hr 1069 ft 11:08 PM CDT MADIS
Coffee Lake, Moose Lake Twp., MN 63.5 °F 58 °F 83% NNW  at  0.2 mph 0.00 in / hr 1060 ft 11:44 PM CDT Rapid Fire
None, Brook Park, MN 61.3 °F 58 °F 87% SE  at  0.0 mph 0.00 in / hr 1030 ft 11:44 PM CDT Rapid Fire
Pomroy Lake, Brook Park, MN 65.1 °F 57 °F 76% NW  at  3.0 mph 0.00 in / hr 1096 ft 11:44 PM CDT Rapid Fire
RAWS ST. CROIX MN, Sandstone, MN 60 °F 59 °F 96% North  at  0 mph 0.00 in / hr 919 ft 11:15 PM CDT MADIS

Show More Stations Show Fewer Stations